Time;durP1;ratioP1;P1;durP2;ratioP2;P2;SDS_P1;SDS_P2;PMS_P1;PMS_P2;Temp;Humidity;BMP_temperature;BMP_pressure;BME280_temperature;BME280_humidity;BME280_pressure;Samples;Min_cycle;Max_cycle;Signal;HPM_P1;HPM_P2
2022/06/05 00:01:19;;;;;;;1.13;0.50;;;15.00;99.90;;;;;;4983287;28;20034;-67
2022/06/05 00:04:06;;;;;;;0.68;0.30;;;15.20;99.90;;;;;;4983191;28;20050;-69
2022/06/05 00:06:37;;;;;;;1.08;0.60;;;15.20;99.90;;;;;;4985656;28;20136;-72
2022/06/05 00:09:17;;;;;;;1.83;0.43;;;15.30;99.90;;;;;;4985699;28;20038;-66
2022/06/05 00:12:10;;;;;;;0.70;0.32;;;15.30;99.90;;;;;;4986812;28;20118;-74
2022/06/05 00:14:39;;;;;;;0.45;0.40;;;15.20;99.90;;;;;;4987008;28;20539;-65
2022/06/05 00:17:16;;;;;;;0.80;0.70;;;15.40;99.90;;;;;;4985957;28;20031;-68
2022/06/05 00:19:48;;;;;;;0.45;0.38;;;15.40;99.90;;;;;;4973848;28;20100;-69
2022/06/05 00:22:16;;;;;;;1.50;0.75;;;15.40;99.90;;;;;;4974435;28;20120;-74
2022/06/05 00:24:43;;;;;;;0.90;0.45;;;15.60;99.90;;;;;;4986055;28;20030;-69
2022/06/05 00:27:35;;;;;;;1.27;0.88;;;15.70;99.90;;;;;;4987164;28;20894;-73
2022/06/05 00:30:09;;;;;;;1.27;0.40;;;15.70;99.90;;;;;;4986249;28;20048;-68
2022/06/05 00:32:38;;;;;;;2.13;0.55;;;15.80;99.90;;;;;;4985370;28;20030;-69
2022/06/05 00:35:08;;;;;;;2.60;0.73;;;15.80;99.90;;;;;;4985810;28;20031;-75
2022/06/05 00:38:01;;;;;;;0.73;0.52;;;15.90;99.90;;;;;;4987058;28;20034;-70
2022/06/05 00:40:34;;;;;;;1.25;0.73;;;16.00;99.90;;;;;;4986192;28;20034;-67
2022/06/05 00:43:01;;;;;;;;;;;16.20;99.90;;;;;;4986770;28;20026;-64
2022/06/05 00:45:31;;;;;;;0.47;0.32;;;16.40;99.90;;;;;;4986008;28;19910;-65
2022/06/05 00:47:58;;;;;;;1.85;0.98;;;16.60;99.90;;;;;;4986084;28;20072;-69
2022/06/05 00:50:30;;;;;;;0.90;0.60;;;16.90;99.90;;;;;;4984524;28;20030;-67
2022/06/05 00:52:59;;;;;;;0.68;0.60;;;17.00;99.90;;;;;;4986053;28;20030;-72
2022/06/05 00:55:30;;;;;;;0.65;0.65;;;17.10;99.90;;;;;;4985775;28;20461;-69
2022/06/05 00:57:57;;;;;;;0.95;0.60;;;17.20;99.90;;;;;;4974031;28;20031;-76
2022/06/05 01:00:31;;;;;;;1.70;0.60;;;17.40;99.60;;;;;;4985331;28;20097;-68
2022/06/05 01:02:59;;;;;;;0.52;0.40;;;17.70;99.30;;;;;;4973364;28;20053;-77
2022/06/05 01:05:28;;;;;;;2.85;1.70;;;17.40;99.70;;;;;;4984919;28;20057;-66
2022/06/05 01:07:57;;;;;;;0.80;0.50;;;17.50;99.50;;;;;;4984798;28;20121;-73
2022/06/05 01:10:33;;;;;;;1.38;0.80;;;17.60;99.70;;;;;;4985052;28;20081;-74
2022/06/05 01:13:06;;;;;;;0.93;0.50;;;17.50;99.40;;;;;;4985766;28;20117;-67
2022/06/05 01:15:39;;;;;;;;;;;17.50;99.70;;;;;;4985148;28;20030;-67
2022/06/05 01:18:38;;;;;;;1.90;1.42;;;17.40;99.20;;;;;;4984656;28;19917;-71
2022/06/05 01:21:42;;;;;;;2.28;1.65;;;17.50;98.90;;;;;;4913588;29;20047;-64
2022/06/05 01:24:53;;;;;;;2.50;1.80;;;17.70;99.20;;;;;;4914092;29;20122;-73
2022/06/05 01:27:26;;;;;;;1.05;0.50;;;18.00;98.60;;;;;;4914041;29;20035;-73
2022/06/05 01:30:19;;;;;;;1.00;0.75;;;18.20;97.70;;;;;;4913629;29;20056;-74
2022/06/05 01:32:50;;;;;;;1.75;0.80;;;18.40;97.50;;;;;;4913042;29;20056;-67
2022/06/05 01:35:27;;;;;;;2.47;0.63;;;18.60;97.00;;;;;;4913793;29;20261;-73
2022/06/05 01:38:01;;;;;;;1.70;0.60;;;18.80;97.10;;;;;;4913643;29;20052;-68
2022/06/05 01:40:40;;;;;;;0.93;0.70;;;19.10;96.10;;;;;;4912402;29;20040;-69
2022/06/05 01:43:12;;;;;;;0.73;0.50;;;19.10;94.70;;;;;;4911947;29;20036;-65
2022/06/05 01:45:56;;;;;;;1.25;0.50;;;19.20;92.90;;;;;;4911756;29;20062;-67
2022/06/05 01:48:49;;;;;;;0.60;0.60;;;19.40;92.80;;;;;;4912099;29;20054;-63
2022/06/05 01:51:39;;;;;;;2.00;1.15;;;19.30;92.30;;;;;;4909672;29;20086;-70
2022/06/05 01:54:12;;;;;;;4.85;2.35;;;19.50;92.40;;;;;;4911978;29;20048;-74
2022/06/05 01:56:54;;;;;;;1.35;0.90;;;19.50;91.10;;;;;;4911311;29;20035;-66
2022/06/05 01:59:33;;;;;;;0.93;0.80;;;19.40;91.00;;;;;;4983308;28;20034;-62
2022/06/05 02:02:04;;;;;;;3.65;1.90;;;19.40;90.70;;;;;;4982939;28;20042;-67
2022/06/05 02:04:40;;;;;;;2.47;1.10;;;19.50;89.80;;;;;;4983481;28;20037;-63
2022/06/05 02:07:20;;;;;;;3.40;2.28;;;19.50;90.40;;;;;;4982291;28;20038;-71
2022/06/05 02:09:56;;;;;;;1.35;0.70;;;19.70;90.10;;;;;;4985421;28;20042;-67
2022/06/05 02:12:23;;;;;;;0.50;0.50;;;19.70;88.70;;;;;;4983931;28;20019;-70
2022/06/05 02:14:51;;;;;;;0.22;0.22;;;19.50;88.20;;;;;;4983859;28;20474;-63
2022/06/05 02:17:18;;;;;;;0.68;0.60;;;19.20;88.70;;;;;;4984051;28;20030;-63
2022/06/05 02:19:46;;;;;;;0.75;0.50;;;19.10;89.60;;;;;;4984674;28;20479;-70
2022/06/05 02:22:28;;;;;;;0.63;0.50;;;19.20;89.50;;;;;;4983947;28;20061;-68
2022/06/05 02:24:56;;;;;;;1.17;0.63;;;19.40;89.80;;;;;;4984612;28;20502;-67
2022/06/05 02:27:25;;;;;;;1.58;0.55;;;19.60;88.70;;;;;;4983835;28;20034;-67
2022/06/05 02:29:54;;;;;;;0.75;0.52;;;19.70;87.50;;;;;;4982865;28;20414;-70
2022/06/05 02:32:34;;;;;;;1.42;0.55;;;19.90;87.10;;;;;;4982118;28;20026;-62
2022/06/05 02:35:16;;;;;;;1.17;0.35;;;20.00;87.70;;;;;;4985192;28;20569;-62
2022/06/05 02:38:01;;;;;;;1.10;0.95;;;20.10;86.60;;;;;;4985047;28;20058;-71
2022/06/05 02:40:41;;;;;;;2.70;0.60;;;20.20;85.40;;;;;;4983939;28;20030;-70
2022/06/05 02:47:31;;;;;;;0.60;0.28;;;19.80;84.80;;;;;;4933185;29;20139;-61
2022/06/05 02:50:25;;;;;;;0.98;0.50;;;19.40;86.80;;;;;;4839344;29;20062;-68
2022/06/05 02:52:52;;;;;;;0.60;0.50;;;19.10;87.20;;;;;;4839442;29;20041;-71
2022/06/05 02:55:21;;;;;;;0.75;0.50;;;19.00;87.40;;;;;;4839449;29;20543;-67
2022/06/05 02:57:49;;;;;;;0.38;0.38;;;19.00;88.40;;;;;;4838479;29;20084;-68
2022/06/05 03:00:26;;;;;;;1.80;0.60;;;19.20;88.00;;;;;;4839047;29;20134;-61
2022/06/05 03:05:40;;;;;;;0.75;0.52;;;19.10;87.40;;;;;;4839173;29;20121;-63
2022/06/05 03:08:10;;;;;;;1.48;0.88;;;18.90;87.80;;;;;;4838667;29;20446;-62
2022/06/05 03:10:37;;;;;;;1.05;0.50;;;18.80;88.20;;;;;;4841933;29;20449;-67
2022/06/05 03:13:05;;;;;;;1.02;0.40;;;18.70;89.10;;;;;;4841143;29;20041;-63
2022/06/05 03:15:33;;;;;;;0.88;0.57;;;18.80;89.10;;;;;;4839890;29;20099;-64
2022/06/05 03:18:00;;;;;;;2.65;0.57;;;18.90;89.30;;;;;;4838486;29;20397;-67
2022/06/05 03:20:28;;;;;;;1.88;1.23;;;18.90;89.50;;;;;;4838791;29;20146;-63
2022/06/05 03:22:55;;;;;;;0.52;0.40;;;18.90;88.40;;;;;;4850345;29;20052;-62
2022/06/05 03:25:24;;;;;;;1.33;0.70;;;19.00;87.30;;;;;;4932305;28;20088;-67
2022/06/05 03:27:52;;;;;;;1.23;0.52;;;19.00;87.10;;;;;;4984294;28;20026;-60
2022/06/05 03:30:19;;;;;;;0.20;0.20;;;19.00;87.20;;;;;;4971946;28;20038;-61
2022/06/05 03:32:47;;;;;;;0.93;0.28;;;18.90;86.20;;;;;;4965127;28;20094;-67
2022/06/05 03:35:15;;;;;;;0.25;0.22;;;18.80;87.00;;;;;;4965885;28;20105;-61
2022/06/05 03:37:42;;;;;;;1.42;0.20;;;18.80;87.00;;;;;;4963677;28;20031;-66
2022/06/05 03:40:16;;;;;;;1.48;0.40;;;18.70;86.20;;;;;;4964974;28;20042;-61
2022/06/05 03:42:44;;;;;;;0.43;0.43;;;18.90;86.00;;;;;;4967951;28;20070;-67
2022/06/05 03:45:16;;;;;;;2.17;0.50;;;18.90;85.90;;;;;;4969911;28;20027;-67
2022/06/05 03:47:44;;;;;;;1.38;0.40;;;18.90;85.60;;;;;;4968443;28;20031;-68
2022/06/05 03:50:14;;;;;;;0.43;0.40;;;19.00;86.10;;;;;;4967905;28;20373;-62
2022/06/05 03:52:41;;;;;;;0.88;0.55;;;19.00;87.10;;;;;;4969653;28;20019;-62
2022/06/05 03:55:16;;;;;;;1.60;0.60;;;18.90;87.60;;;;;;4969287;28;20153;-64
2022/06/05 03:57:43;;;;;;;1.05;0.70;;;18.80;88.00;;;;;;4967440;28;20674;-64
2022/06/05 04:00:12;;;;;;;0.60;0.60;;;18.80;88.50;;;;;;4966865;28;20101;-63
2022/06/05 04:02:40;;;;;;;1.60;0.90;;;18.80;88.30;;;;;;4968196;28;20022;-64
2022/06/05 04:05:09;;;;;;;1.48;0.80;;;18.70;88.30;;;;;;4968844;28;20034;-71
2022/06/05 04:07:36;;;;;;;1.10;0.60;;;18.70;88.80;;;;;;4968187;28;20031;-70
2022/06/05 04:10:04;;;;;;;1.60;0.82;;;18.60;88.00;;;;;;4967801;28;20522;-64
2022/06/05 04:12:31;;;;;;;1.67;1.00;;;18.50;87.90;;;;;;4967605;28;20451;-66
2022/06/05 04:15:00;;;;;;;2.22;1.10;;;18.50;88.80;;;;;;4968501;28;20031;-64
2022/06/05 04:17:27;;;;;;;1.00;0.70;;;18.50;88.30;;;;;;4967193;28;20325;-64
2022/06/05 04:19:55;;;;;;;0.50;0.50;;;18.40;88.90;;;;;;4967345;28;20073;-65
2022/06/05 04:22:22;;;;;;;0.47;0.47;;;18.30;87.70;;;;;;4968033;28;20336;-66
2022/06/05 04:24:49;;;;;;;1.83;0.40;;;18.20;88.30;;;;;;4951131;28;20031;-70
2022/06/05 04:27:16;;;;;;;0.52;0.50;;;18.10;88.00;;;;;;4967651;28;20031;-71
2022/06/05 04:29:43;;;;;;;1.15;0.40;;;18.10;89.20;;;;;;4968440;28;20098;-69
2022/06/05 04:32:11;;;;;;;0.50;0.50;;;18.00;88.60;;;;;;4950158;28;20018;-69
2022/06/05 04:34:38;;;;;;;2.33;0.80;;;18.00;88.80;;;;;;4967446;28;20042;-66
2022/06/05 04:37:06;;;;;;;1.20;1.02;;;18.00;89.20;;;;;;4967830;28;20027;-66
2022/06/05 04:39:33;;;;;;;1.17;0.90;;;18.00;89.40;;;;;;4968487;28;20022;-67
2022/06/05 04:42:00;;;;;;;0.55;0.40;;;18.00;89.30;;;;;;4967610;28;20034;-67
2022/06/05 04:44:27;;;;;;;0.47;0.40;;;17.90;89.00;;;;;;4967452;28;20035;-67
2022/06/05 04:46:55;;;;;;;0.60;0.43;;;17.90;90.10;;;;;;4966973;28;20077;-67
2022/06/05 04:49:22;;;;;;;2.25;0.82;;;17.90;89.40;;;;;;4966382;28;20070;-66
2022/06/05 04:51:49;;;;;;;1.13;0.77;;;17.70;88.60;;;;;;4967672;28;20039;-69
2022/06/05 04:54:17;;;;;;;3.45;2.40;;;17.60;88.70;;;;;;4956122;28;20033;-70
2022/06/05 04:56:45;;;;;;;2.20;1.90;;;17.40;88.60;;;;;;4961142;28;20101;-69
2022/06/05 04:59:13;;;;;;;1.83;1.08;;;17.50;89.60;;;;;;4966981;28;20090;-69
2022/06/05 05:01:40;;;;;;;2.78;1.80;;;17.40;88.80;;;;;;4967282;28;20118;-64
2022/06/05 05:04:10;;;;;;;1.05;0.75;;;17.30;88.80;;;;;;4967111;28;20030;-65
2022/06/05 05:06:39;;;;;;;1.25;0.77;;;17.20;89.30;;;;;;4966357;28;20062;-65
2022/06/05 05:09:07;;;;;;;1.85;0.80;;;17.20;89.90;;;;;;4967534;28;20027;-70
2022/06/05 05:11:35;;;;;;;1.83;0.82;;;17.20;89.40;;;;;;4966775;28;20034;-65
2022/06/05 05:14:03;;;;;;;1.27;0.50;;;17.10;90.00;;;;;;4966497;28;20486;-65
2022/06/05 05:16:31;;;;;;;0.55;0.30;;;17.10;90.00;;;;;;4967245;28;20053;-68
2022/06/05 05:18:58;;;;;;;1.95;0.40;;;17.00;89.90;;;;;;4967413;28;20034;-70
2022/06/05 05:21:27;;;;;;;0.98;0.50;;;17.00;90.00;;;;;;4967540;28;20027;-66
2022/06/05 05:23:55;;;;;;;0.98;0.70;;;17.00;90.30;;;;;;4949984;28;20058;-68
2022/06/05 05:26:33;;;;;;;2.33;0.52;;;16.90;90.70;;;;;;4966032;28;20046;-65
2022/06/05 05:29:03;;;;;;;0.85;0.52;;;16.90;90.80;;;;;;4975802;23;20042;-67
2022/06/05 05:31:38;;;;;;;2.03;0.77;;;16.80;90.90;;;;;;4968546;28;20062;-65
2022/06/05 05:34:06;;;;;;;0.65;0.50;;;16.80;90.80;;;;;;4986278;28;20026;-65
2022/06/05 05:36:34;;;;;;;1.55;1.00;;;16.70;91.40;;;;;;4987445;28;20035;-66
2022/06/05 05:42:05;;;;;;;1.33;1.10;;;16.60;91.60;;;;;;4985385;28;20057;-66
2022/06/05 05:44:35;;;;;;;1.40;0.80;;;16.50;92.20;;;;;;4640651;28;10000037;-68
2022/06/05 05:47:06;;;;;;;0.80;0.70;;;16.50;92.40;;;;;;4965541;28;20464;-66
2022/06/05 05:49:33;;;;;;;2.50;0.70;;;16.40;92.40;;;;;;4982611;28;20034;-68
2022/06/05 05:52:00;;;;;;;0.80;0.77;;;16.40;92.70;;;;;;4983422;28;20510;-67
2022/06/05 05:54:27;;;;;;;1.73;0.90;;;16.40;92.60;;;;;;4983296;28;20081;-65
2022/06/05 05:56:55;;;;;;;2.10;1.35;;;16.40;92.60;;;;;;4982345;28;20026;-65
2022/06/05 05:59:22;;;;;;;2.35;1.15;;;16.30;92.80;;;;;;4983419;28;20025;-64
2022/06/05 06:01:49;;;;;;;3.15;1.30;;;16.20;93.30;;;;;;4982054;28;20050;-65
2022/06/05 06:04:16;;;;;;;2.88;1.10;;;16.20;93.60;;;;;;4982179;28;20482;-72
2022/06/05 06:06:46;;;;;;;2.13;1.20;;;16.20;94.30;;;;;;4983248;28;20482;-71
2022/06/05 06:09:13;;;;;;;2.17;1.10;;;16.20;94.90;;;;;;4982778;28;20037;-71
2022/06/05 06:11:40;;;;;;;4.15;1.30;;;16.10;95.30;;;;;;4963459;28;20153;-67
2022/06/05 06:14:08;;;;;;;1.42;1.00;;;16.10;95.60;;;;;;4964089;28;20623;-67
2022/06/05 06:16:35;;;;;;;2.72;1.10;;;16.00;96.00;;;;;;4982463;28;20106;-71
2022/06/05 06:19:03;;;;;;;15.43;7.50;;;16.00;96.20;;;;;;4982341;28;20034;-71
2022/06/05 06:21:31;;;;;;;6.80;3.55;;;15.90;96.30;;;;;;4982143;28;20038;-63
2022/06/05 06:23:58;;;;;;;5.72;2.42;;;15.80;96.20;;;;;;4981666;28;20038;-67
2022/06/05 06:26:25;;;;;;;4.03;1.20;;;15.70;96.30;;;;;;4981908;28;20762;-69
2022/06/05 06:28:52;;;;;;;2.72;1.45;;;15.70;96.10;;;;;;4981794;28;20073;-69
2022/06/05 06:31:20;;;;;;;3.42;1.17;;;15.70;95.90;;;;;;4982512;28;20550;-66
2022/06/05 06:33:48;;;;;;;3.13;1.30;;;15.50;96.10;;;;;;4982200;28;20030;-70
2022/06/05 06:36:17;;;;;;;1.85;1.48;;;15.40;96.40;;;;;;4982724;28;20627;-66
2022/06/05 06:38:45;;;;;;;3.60;2.10;;;15.40;96.30;;;;;;4981924;28;20037;-69
2022/06/05 06:41:14;;;;;;;2.72;1.88;;;15.30;96.60;;;;;;4983001;28;20137;-69
2022/06/05 06:43:43;;;;;;;2.55;1.50;;;15.20;96.60;;;;;;4982336;28;20031;-68
2022/06/05 06:46:11;;;;;;;3.53;1.20;;;15.10;96.60;;;;;;4980906;28;21032;-70
2022/06/05 06:48:38;;;;;;;2.40;1.50;;;15.10;96.50;;;;;;4982862;28;20035;-69
2022/06/05 06:51:07;;;;;;;3.00;2.15;;;15.00;97.00;;;;;;4979447;28;20034;-69
2022/06/05 06:53:35;;;;;;;2.03;1.40;;;14.80;97.10;;;;;;4980283;28;20029;-70
2022/06/05 06:56:14;;;;;;;1.25;0.80;;;14.80;97.20;;;;;;4963354;28;20136;-71
2022/06/05 06:58:43;;;;;;;1.98;0.77;;;14.70;97.50;;;;;;4981788;28;20023;-70
2022/06/05 07:01:11;;;;;;;1.45;0.90;;;14.60;97.90;;;;;;4982184;28;20039;-66
2022/06/05 07:03:39;;;;;;;1.83;1.20;;;14.60;98.30;;;;;;4980443;28;20045;-69
2022/06/05 07:06:10;;;;;;;1.70;1.13;;;14.50;98.60;;;;;;4981654;28;20030;-70
2022/06/05 07:08:37;;;;;;;1.75;1.02;;;14.40;98.80;;;;;;4974980;28;20595;-69
2022/06/05 07:11:09;;;;;;;1.98;1.08;;;14.30;99.00;;;;;;4981758;28;20030;-67
2022/06/05 07:13:37;;;;;;;0.90;0.80;;;14.30;99.30;;;;;;4954443;28;20063;-67
2022/06/05 07:16:08;;;;;;;2.03;1.00;;;14.20;99.40;;;;;;4976782;28;20027;-72
2022/06/05 07:18:35;;;;;;;2.20;0.93;;;14.10;99.80;;;;;;4977202;28;20034;-69
2022/06/05 07:21:20;;;;;;;1.17;0.90;;;14.00;99.90;;;;;;4962379;28;20513;-72
2022/06/05 07:23:48;;;;;;;1.00;0.57;;;13.90;99.90;;;;;;4981380;28;20823;-70
2022/06/05 07:26:19;;;;;;;1.33;0.80;;;13.90;99.90;;;;;;4982439;28;20060;-68
2022/06/05 07:28:47;;;;;;;0.93;0.60;;;13.80;99.90;;;;;;4974036;28;20034;-68
2022/06/05 07:31:16;;;;;;;0.77;0.57;;;13.70;99.90;;;;;;4969472;28;20053;-70
2022/06/05 07:33:43;;;;;;;1.70;0.95;;;13.60;99.90;;;;;;4968802;28;20045;-70
2022/06/05 07:36:16;;;;;;;1.77;0.82;;;13.50;99.90;;;;;;4971530;28;20030;-63
2022/06/05 07:38:44;;;;;;;1.58;0.80;;;13.50;99.90;;;;;;4953023;28;20114;-64
2022/06/05 07:41:29;;;;;;;1.10;0.70;;;13.50;99.90;;;;;;4970207;28;20121;-63
2022/06/05 07:43:59;;;;;;;1.70;1.00;;;13.40;99.90;;;;;;4970182;28;20041;-69
2022/06/05 07:46:26;;;;;;;2.25;0.80;;;13.40;99.90;;;;;;4970042;28;20716;-69
2022/06/05 07:48:53;;;;;;;2.55;0.90;;;13.40;99.90;;;;;;4971767;28;20028;-69
2022/06/05 07:54:34;;;;;;;2.13;1.10;;;13.30;99.90;;;;;;4970235;28;20092;-68
2022/06/05 07:57:08;;;;;;;2.85;1.50;;;13.30;99.90;;;;;;4970575;28;20058;-63
2022/06/05 07:59:39;;;;;;;1.98;1.40;;;13.20;99.90;;;;;;4970568;28;20029;-72
2022/06/05 08:02:12;;;;;;;1.88;1.10;;;13.10;99.90;;;;;;4965882;28;20026;-70
2022/06/05 08:04:40;;;;;;;1.98;1.23;;;13.10;99.90;;;;;;4969309;28;20041;-64
2022/06/05 08:07:10;;;;;;;2.55;1.30;;;13.00;99.90;;;;;;4970508;28;20169;-65
2022/06/05 08:09:39;;;;;;;1.40;1.15;;;12.90;99.90;;;;;;4970890;28;20026;-70
2022/06/05 08:12:08;;;;;;;3.65;1.52;;;12.90;99.90;;;;;;4968851;28;20046;-69
2022/06/05 08:14:37;;;;;;;1.90;1.08;;;12.80;99.90;;;;;;4970881;28;20752;-64
2022/06/05 08:17:14;;;;;;;2.33;1.00;;;12.80;99.90;;;;;;4971541;28;20021;-64
2022/06/05 08:19:43;;;;;;;1.15;0.90;;;12.70;99.90;;;;;;4972302;28;20090;-64
2022/06/05 08:22:12;;;;;;;3.22;1.00;;;12.70;99.90;;;;;;4970531;28;20074;-65
2022/06/05 08:24:39;;;;;;;2.10;1.15;;;12.70;99.90;;;;;;4970341;28;20042;-73
2022/06/05 08:27:10;;;;;;;1.90;1.13;;;12.70;99.90;;;;;;4969536;28;20037;-65
2022/06/05 08:29:38;;;;;;;1.83;1.08;;;12.70;99.90;;;;;;4978841;28;20108;-66
2022/06/05 08:32:06;;;;;;;1.45;0.95;;;12.70;99.90;;;;;;4983263;28;20030;-69
2022/06/05 08:34:33;;;;;;;4.35;2.35;;;12.70;99.90;;;;;;4983669;28;20030;-69
2022/06/05 08:42:42;;;;;;;14.90;9.88;;;12.50;99.90;;;;;;4985140;28;20033;-65
2022/06/05 08:45:28;;;;;;;14.18;8.85;;;12.50;99.90;;;;;;4978207;28;20034;-71
2022/06/05 08:48:06;;;;;;;2.55;1.20;;;12.40;99.90;;;;;;4979155;28;20042;-73
2022/06/05 08:50:50;;;;;;;3.15;2.08;;;12.40;99.90;;;;;;4981168;28;20113;-64
2022/06/05 08:53:29;;;;;;;1.83;1.20;;;12.40;99.90;;;;;;4979918;28;20034;-71
2022/06/05 08:55:58;;;;;;;2.80;2.28;;;12.40;99.90;;;;;;4979947;28;20034;-66
2022/06/05 08:58:50;;;;;;;1.42;0.60;;;12.40;99.90;;;;;;4984167;28;20034;-76
2022/06/05 09:01:50;;;;;;;0.83;0.63;;;12.40;99.90;;;;;;4984093;28;20101;-71
2022/06/05 09:04:50;;;;;;;1.90;0.82;;;12.30;99.90;;;;;;4985139;28;20121;-74
2022/06/05 09:07:29;;;;;;;2.00;0.80;;;12.30;99.90;;;;;;4983071;28;20034;-70
2022/06/05 09:10:15;;;;;;;1.83;0.80;;;12.30;99.90;;;;;;4985146;28;20062;-67
2022/06/05 09:12:45;;;;;;;1.85;0.82;;;12.30;99.90;;;;;;4984524;28;20018;-70
2022/06/05 09:15:32;;;;;;;1.30;0.82;;;12.30;99.90;;;;;;4979870;28;20058;-73
2022/06/05 09:18:01;;;;;;;0.90;0.70;;;12.30;99.90;;;;;;4981169;28;20043;-65
2022/06/05 09:20:51;;;;;;;0.88;0.70;;;12.30;99.90;;;;;;4982072;28;20026;-65
2022/06/05 09:23:32;;;;;;;1.40;0.93;;;12.30;99.90;;;;;;4981079;28;20026;-74
2022/06/05 09:26:20;;;;;;;1.08;0.60;;;12.20;99.90;;;;;;4980616;28;20034;-67
2022/06/05 09:29:17;;;;;;;1.20;0.60;;;12.20;99.90;;;;;;4981267;28;20117;-72
2022/06/05 09:32:03;;;;;;;1.33;0.90;;;12.20;99.90;;;;;;4980301;28;20039;-74
2022/06/05 09:34:38;;;;;;;3.10;1.67;;;12.10;99.90;;;;;;4982984;28;20038;-73
2022/06/05 09:37:05;;;;;;;13.48;8.15;;;12.10;99.90;;;;;;4983629;28;20132;-72
2022/06/05 09:39:56;;;;;;;2.67;1.63;;;12.00;99.90;;;;;;4980962;28;20054;-71
2022/06/05 09:42:36;;;;;;;1.20;1.02;;;12.00;99.90;;;;;;4980801;28;20023;-72
2022/06/05 09:45:14;;;;;;;0.85;0.50;;;12.00;99.90;;;;;;4981909;28;20030;-74
2022/06/05 09:48:14;;;;;;;0.93;0.60;;;12.00;99.90;;;;;;4981754;28;20030;-68
2022/06/05 09:50:42;;;;;;;1.63;1.00;;;12.00;99.90;;;;;;4975882;28;20122;-70
2022/06/05 09:53:31;;;;;;;2.47;0.80;;;11.90;99.90;;;;;;4975603;28;20035;-71
2022/06/05 09:56:12;;;;;;;1.35;0.85;;;11.80;99.90;;;;;;4976771;28;20030;-68
2022/06/05 09:58:53;;;;;;;2.40;1.10;;;11.80;99.90;;;;;;4978310;28;20057;-69
2022/06/05 10:01:31;;;;;;;1.83;1.00;;;11.80;99.90;;;;;;4976901;28;20054;-67
2022/06/05 10:03:59;;;;;;;1.45;0.73;;;11.70;99.90;;;;;;4977319;28;20026;-68
2022/06/05 10:06:38;;;;;;;3.13;1.15;;;11.70;99.90;;;;;;4977585;28;20105;-67
2022/06/05 10:09:19;;;;;;;2.33;0.95;;;11.70;99.90;;;;;;4980777;28;20034;-68
2022/06/05 10:12:07;;;;;;;1.20;0.60;;;11.60;99.90;;;;;;4980124;28;20034;-71
2022/06/05 10:14:47;;;;;;;1.08;0.70;;;11.60;99.90;;;;;;4962830;28;20030;-68
2022/06/05 10:17:29;;;;;;;1.10;0.68;;;11.60;99.90;;;;;;4980409;28;20026;-67
2022/06/05 10:20:24;;;;;;;2.42;0.65;;;11.60;99.90;;;;;;4976626;28;20084;-67
2022/06/05 10:23:08;;;;;;;0.85;0.47;;;11.50;99.90;;;;;;4975642;28;20113;-71
2022/06/05 10:25:57;;;;;;;1.08;0.60;;;11.50;99.90;;;;;;4976392;28;20132;-69
2022/06/05 10:28:31;;;;;;;2.53;0.73;;;11.40;99.90;;;;;;4975120;28;20158;-68
2022/06/05 10:31:05;;;;;;;1.13;0.60;;;11.40;99.90;;;;;;4975921;28;20046;-69
2022/06/05 10:33:53;;;;;;;1.50;0.80;;;11.40;99.90;;;;;;4977271;28;20053;-69
2022/06/05 10:36:25;;;;;;;1.02;0.52;;;11.30;99.90;;;;;;4975463;28;20026;-70
2022/06/05 10:39:18;;;;;;;2.28;0.60;;;11.20;99.90;;;;;;4976492;28;20042;-71
2022/06/05 10:42:11;;;;;;;2.03;0.82;;;11.20;99.90;;;;;;4964392;28;20034;-74
2022/06/05 10:45:21;;;;;;;0.95;0.52;;;11.20;99.90;;;;;;4949729;28;20051;-72
2022/06/05 10:47:57;;;;;;;0.93;0.65;;;11.10;99.90;;;;;;4964559;28;20784;-73
2022/06/05 10:50:45;;;;;;;0.70;0.50;;;11.00;99.90;;;;;;4972697;28;20049;-71
2022/06/05 10:53:21;;;;;;;1.33;0.90;;;11.00;99.90;;;;;;4973900;28;20117;-70
2022/06/05 10:55:59;;;;;;;0.75;0.60;;;10.80;99.90;;;;;;4977453;28;20031;-70
2022/06/05 10:58:58;;;;;;;3.45;1.85;;;10.60;99.90;;;;;;4972102;28;20080;-72
2022/06/05 11:01:31;;;;;;;2.83;2.13;;;10.60;99.90;;;;;;4975984;28;20073;-69
2022/06/05 11:04:23;;;;;;;2.13;0.73;;;10.60;99.90;;;;;;4975716;28;20018;-72
2022/06/05 11:07:17;;;;;;;1.85;1.00;;;10.50;99.90;;;;;;4971742;28;20026;-70
2022/06/05 11:09:57;;;;;;;6.70;4.97;;;10.60;99.90;;;;;;4973640;28;20114;-65
2022/06/05 11:16:06;;;;;;;1.95;1.50;;;10.60;99.90;;;;;;4878051;29;20052;-71
2022/06/05 11:18:41;;;;;;;3.85;1.90;;;10.50;99.90;;;;;;4860430;29;20032;-68
2022/06/05 11:21:10;;;;;;;3.53;2.45;;;10.50;99.90;;;;;;4878910;29;20033;-68
2022/06/05 11:23:41;;;;;;;2.78;2.03;;;10.40;99.90;;;;;;4878190;29;20041;-68
2022/06/05 11:26:31;;;;;;;1.60;0.88;;;10.30;99.90;;;;;;4873743;29;20040;-67
2022/06/05 11:29:39;;;;;;;2.67;1.50;;;10.40;99.90;;;;;;4877307;29;20764;-66
2022/06/05 11:32:35;;;;;;;4.00;1.92;;;10.30;99.90;;;;;;4820433;29;20212;-64
2022/06/05 11:35:13;;;;;;;3.85;2.58;;;10.40;99.90;;;;;;4820974;29;20786;-68
2022/06/05 11:37:59;;;;;;;1.38;0.88;;;10.40;99.90;;;;;;4819599;29;20030;-73
2022/06/05 11:40:32;;;;;;;1.33;0.65;;;10.40;99.90;;;;;;4819812;29;20033;-70
2022/06/05 11:43:18;;;;;;;2.35;1.17;;;10.40;99.90;;;;;;4819229;29;20137;-68
2022/06/05 11:46:10;;;;;;;1.40;1.05;;;10.40;99.90;;;;;;4819778;29;20487;-69
2022/06/05 11:48:43;;;;;;;1.27;0.80;;;10.40;99.90;;;;;;4824948;29;20562;-76
2022/06/05 11:51:37;;;;;;;1.90;0.90;;;10.40;99.90;;;;;;4859739;29;20092;-67
2022/06/05 11:54:16;;;;;;;1.55;1.00;;;10.40;99.90;;;;;;4860418;29;20117;-69
2022/06/05 11:56:55;;;;;;;1.98;1.00;;;10.50;99.90;;;;;;4859315;29;20046;-70
2022/06/05 11:59:32;;;;;;;1.75;0.80;;;10.50;99.90;;;;;;4861274;29;20045;-70
2022/06/05 12:02:24;;;;;;;3.15;0.98;;;10.50;99.90;;;;;;4854338;29;20049;-69
2022/06/05 12:05:30;;;;;;;2.28;0.95;;;10.40;99.90;;;;;;4864023;29;20071;-73
2022/06/05 12:08:29;;;;;;;2.35;1.45;;;10.30;99.90;;;;;;4864427;29;20044;-69
2022/06/05 12:10:59;;;;;;;3.22;0.98;;;10.30;99.90;;;;;;4959483;28;20027;-73
2022/06/05 12:14:04;;;;;;;2.00;1.13;;;10.30;99.90;;;;;;4959403;28;20027;-68
2022/06/05 12:16:47;;;;;;;4.68;1.00;;;10.30;99.90;;;;;;4900602;29;20565;-72
2022/06/05 12:19:27;;;;;;;2.17;0.80;;;10.30;99.90;;;;;;4896155;29;20144;-68
2022/06/05 12:21:54;;;;;;;1.63;0.88;;;10.30;99.90;;;;;;4894684;29;20044;-69
2022/06/05 12:24:32;;;;;;;1.65;0.98;;;10.20;99.90;;;;;;4898347;29;20091;-69
2022/06/05 12:27:12;;;;;;;0.98;0.70;;;10.30;99.90;;;;;;4902392;29;20442;-69
2022/06/05 12:29:57;;;;;;;1.10;0.60;;;10.30;99.90;;;;;;4899148;29;20413;-69
2022/06/05 12:32:50;;;;;;;1.60;0.70;;;10.30;99.90;;;;;;4893107;29;20112;-67
2022/06/05 12:35:27;;;;;;;0.63;0.63;;;10.30;99.90;;;;;;4896188;29;20043;-67
2022/06/05 12:38:15;;;;;;;1.20;0.63;;;10.30;99.90;;;;;;4899464;29;20035;-69
2022/06/05 12:40:52;;;;;;;0.70;0.50;;;10.40;99.90;;;;;;4902644;29;20493;-68
2022/06/05 12:43:53;;;;;;;1.45;0.60;;;10.50;99.90;;;;;;4891779;29;20041;-66
2022/06/05 12:46:36;;;;;;;0.80;0.45;;;10.40;99.90;;;;;;4898662;29;20040;-69
2022/06/05 12:49:28;;;;;;;1.75;0.68;;;10.50;99.90;;;;;;4902405;29;20036;-70
2022/06/05 12:52:13;;;;;;;1.50;0.70;;;10.40;99.90;;;;;;4899396;29;20127;-66
2022/06/05 12:55:05;;;;;;;0.73;0.47;;;10.50;99.90;;;;;;4967596;28;20053;-70
2022/06/05 12:57:50;;;;;;;1.02;0.52;;;10.60;99.90;;;;;;4973622;28;20035;-73
2022/06/05 13:00:38;;;;;;;2.13;0.52;;;10.50;99.90;;;;;;4974437;28;20038;-70
2022/06/05 13:03:26;;;;;;;0.43;0.40;;;10.60;99.90;;;;;;4971090;28;20034;-68
2022/06/05 13:06:02;;;;;;;0.65;0.50;;;10.60;99.90;;;;;;4916599;29;20051;-68
2022/06/05 13:08:37;;;;;;;0.70;0.50;;;10.60;99.90;;;;;;4913549;29;20100;-68
2022/06/05 13:11:32;;;;;;;0.65;0.50;;;10.70;99.90;;;;;;4917516;29;20036;-73
2022/06/05 13:14:02;;;;;;;0.75;0.60;;;10.70;99.90;;;;;;4904715;29;20028;-71
2022/06/05 13:16:50;;;;;;;1.80;0.30;;;10.70;99.90;;;;;;4896279;29;20028;-68
2022/06/05 13:19:47;;;;;;;1.50;0.60;;;10.80;99.90;;;;;;4907595;29;20036;-67
2022/06/05 13:22:36;;;;;;;0.68;0.50;;;10.80;99.90;;;;;;4907815;29;20546;-68
2022/06/05 13:25:32;;;;;;;1.20;0.70;;;10.80;99.90;;;;;;4908823;29;20565;-70
2022/06/05 13:28:13;;;;;;;1.33;0.80;;;10.70;99.90;;;;;;4905591;29;20055;-70
2022/06/05 13:31:21;;;;;;;1.42;0.68;;;10.70;99.90;;;;;;4907535;29;20048;-70
2022/06/05 13:34:12;;;;;;;0.43;0.43;;;10.70;99.90;;;;;;4899208;29;20041;-67
2022/06/05 13:36:49;;;;;;;1.05;0.75;;;10.60;99.90;;;;;;4906488;29;20036;-73
2022/06/05 13:39:33;;;;;;;1.92;0.55;;;10.50;99.90;;;;;;4906093;29;20030;-68
2022/06/05 13:42:17;;;;;;;1.25;0.50;;;10.60;99.90;;;;;;4908269;28;20041;-68
2022/06/05 13:44:57;;;;;;;0.70;0.47;;;10.50;99.90;;;;;;4968281;28;20035;-68
2022/06/05 13:47:39;;;;;;;0.45;0.45;;;10.50;99.90;;;;;;4967079;28;20467;-68
2022/06/05 13:50:21;;;;;;;0.80;0.63;;;10.50;99.90;;;;;;4968249;28;20058;-67
2022/06/05 13:53:00;;;;;;;1.25;0.73;;;10.40;99.90;;;;;;4964989;28;20399;-66
2022/06/05 13:55:52;;;;;;;0.70;0.52;;;10.40;99.90;;;;;;4622630;28;10000497;-71